Miyun, China
Current Conditions -  °F | °C
As of 9:00 AM on Wednesday 22 Oct 2014 (Local Time) from ZBAA Reporting Station
Clear Clear  
Wind Chill: 50°   Ceiling: Unl
Heat Index: 50°   Visibility: 6mi
Dew Point: 36°   Wind: 2mph
Humidity: 58%   Direction: NA
Pressure: 30.27"   Gusts: NA
Location:  40.37°N, 116.82°E
Report Text: ZBAA 220100Z VRB01MPS CAVOK 10/02 Q1025 NOSIG
Loading
Personal Weather Stations






























Interactive Weather Map
Tropical Storm Tracking
New forecast layout! Learn more

10-Day Weather Forecast

Advertisements
Track Severe Weather on mobile